sensor_id;sensor_type;location;lat;lon;timestamp;temperature;humidity
76470;DHT22;65305;52.870;13.660;2023-03-21T00:01:52;7.30;71.60
76470;DHT22;65305;52.870;13.660;2023-03-21T00:04:18;7.30;71.60
76470;DHT22;65305;52.870;13.660;2023-03-21T00:06:45;7.30;71.60
76470;DHT22;65305;52.870;13.660;2023-03-21T00:09:12;7.30;71.50
76470;DHT22;65305;52.870;13.660;2023-03-21T00:11:38;7.30;71.60
76470;DHT22;65305;52.870;13.660;2023-03-21T00:14:05;7.30;71.60
76470;DHT22;65305;52.870;13.660;2023-03-21T00:16:33;7.30;71.60
76470;DHT22;65305;52.870;13.660;2023-03-21T00:19:00;7.30;71.60
76470;DHT22;65305;52.870;13.660;2023-03-21T00:21:31;7.30;71.60
76470;DHT22;65305;52.870;13.660;2023-03-21T00:23:59;7.30;71.60
76470;DHT22;65305;52.870;13.660;2023-03-21T00:26:25;7.30;71.60
76470;DHT22;65305;52.870;13.660;2023-03-21T00:28:52;7.30;71.60
76470;DHT22;65305;52.870;13.660;2023-03-21T00:31:19;7.30;71.60
76470;DHT22;65305;52.870;13.660;2023-03-21T00:33:45;7.30;71.50
76470;DHT22;65305;52.870;13.660;2023-03-21T00:36:12;7.30;71.70
76470;DHT22;65305;52.870;13.660;2023-03-21T00:38:38;7.20;71.50
76470;DHT22;65305;52.870;13.660;2023-03-21T00:41:05;7.30;71.70
76470;DHT22;65305;52.870;13.660;2023-03-21T00:43:32;7.30;71.50
76470;DHT22;65305;52.870;13.660;2023-03-21T00:45:59;7.30;71.60
76470;DHT22;65305;52.870;13.660;2023-03-21T00:48:25;7.30;71.50
76470;DHT22;65305;52.870;13.660;2023-03-21T00:50:52;7.30;71.60
76470;DHT22;65305;52.870;13.660;2023-03-21T00:53:19;7.30;71.50
76470;DHT22;65305;52.870;13.660;2023-03-21T00:55:46;7.30;71.50
76470;DHT22;65305;52.870;13.660;2023-03-21T00:58:13;7.20;71.50
76470;DHT22;65305;52.870;13.660;2023-03-21T01:00:39;7.20;71.50
76470;DHT22;65305;52.870;13.660;2023-03-21T01:03:07;7.30;71.60
76470;DHT22;65305;52.870;13.660;2023-03-21T01:05:38;7.20;71.50
76470;DHT22;65305;52.870;13.660;2023-03-21T01:08:24;7.20;71.60
76470;DHT22;65305;52.870;13.660;2023-03-21T01:10:51;7.30;71.50
76470;DHT22;65305;52.870;13.660;2023-03-21T01:13:18;7.20;71.50
76470;DHT22;65305;52.870;13.660;2023-03-21T01:15:46;7.30;71.50
76470;DHT22;65305;52.870;13.660;2023-03-21T01:18:13;7.20;71.60
76470;DHT22;65305;52.870;13.660;2023-03-21T01:20:41;7.30;71.50
76470;DHT22;65305;52.870;13.660;2023-03-21T01:23:08;7.20;71.50
76470;DHT22;65305;52.870;13.660;2023-03-21T01:25:34;7.20;71.60
76470;DHT22;65305;52.870;13.660;2023-03-21T01:28:01;7.20;71.50
76470;DHT22;65305;52.870;13.660;2023-03-21T01:30:28;7.30;71.50
76470;DHT22;65305;52.870;13.660;2023-03-21T01:32:55;7.20;71.60
76470;DHT22;65305;52.870;13.660;2023-03-21T01:35:21;7.20;71.40
76470;DHT22;65305;52.870;13.660;2023-03-21T01:37:48;7.20;71.40
76470;DHT22;65305;52.870;13.660;2023-03-21T01:40:18;7.20;71.50
76470;DHT22;65305;52.870;13.660;2023-03-21T01:42:45;7.30;71.40
76470;DHT22;65305;52.870;13.660;2023-03-21T01:47:57;7.20;71.40
76470;DHT22;65305;52.870;13.660;2023-03-21T01:50:24;7.20;71.50
76470;DHT22;65305;52.870;13.660;2023-03-21T01:52:51;7.20;71.50
76470;DHT22;65305;52.870;13.660;2023-03-21T01:55:17;7.20;71.50
76470;DHT22;65305;52.870;13.660;2023-03-21T01:57:48;7.20;71.50
76470;DHT22;65305;52.870;13.660;2023-03-21T02:00:19;7.20;71.50
76470;DHT22;65305;52.870;13.660;2023-03-21T02:02:46;7.20;71.60
76470;DHT22;65305;52.870;13.660;2023-03-21T02:05:34;7.20;71.60
76470;DHT22;65305;52.870;13.660;2023-03-21T02:08:03;7.20;71.60
76470;DHT22;65305;52.870;13.660;2023-03-21T02:10:30;7.20;71.70
76470;DHT22;65305;52.870;13.660;2023-03-21T02:12:58;7.20;71.60
76470;DHT22;65305;52.870;13.660;2023-03-21T02:15:34;7.20;71.60
76470;DHT22;65305;52.870;13.660;2023-03-21T02:18:10;7.20;71.60
76470;DHT22;65305;52.870;13.660;2023-03-21T02:25:58;7.20;71.60
76470;DHT22;65305;52.870;13.660;2023-03-21T02:28:41;7.20;71.50
76470;DHT22;65305;52.870;13.660;2023-03-21T02:31:13;7.20;71.60
76470;DHT22;65305;52.870;13.660;2023-03-21T02:36:16;7.20;71.60
76470;DHT22;65305;52.870;13.660;2023-03-21T02:39:00;7.20;71.50
76470;DHT22;65305;52.870;13.660;2023-03-21T02:49:15;7.20;71.60
76470;DHT22;65305;52.870;13.660;2023-03-21T02:51:45;7.20;71.80
76470;DHT22;65305;52.870;13.660;2023-03-21T02:54:14;7.20;71.60
76470;DHT22;65305;52.870;13.660;2023-03-21T02:56:43;7.20;71.50
76470;DHT22;65305;52.870;13.660;2023-03-21T02:59:10;7.20;71.50
76470;DHT22;65305;52.870;13.660;2023-03-21T03:01:37;7.20;71.60
76470;DHT22;65305;52.870;13.660;2023-03-21T03:04:16;7.20;71.50
76470;DHT22;65305;52.870;13.660;2023-03-21T03:06:48;7.20;71.60
76470;DHT22;65305;52.870;13.660;2023-03-21T03:09:29;7.20;71.70
76470;DHT22;65305;52.870;13.660;2023-03-21T03:12:01;7.20;71.60
76470;DHT22;65305;52.870;13.660;2023-03-21T03:14:40;7.20;71.60
76470;DHT22;65305;52.870;13.660;2023-03-21T03:22:35;7.20;71.70
76470;DHT22;65305;52.870;13.660;2023-03-21T03:25:07;7.20;71.50
76470;DHT22;65305;52.870;13.660;2023-03-21T03:27:38;7.20;71.50
76470;DHT22;65305;52.870;13.660;2023-03-21T03:30:08;7.20;71.70
76470;DHT22;65305;52.870;13.660;2023-03-21T03:32:39;7.20;71.80
76470;DHT22;65305;52.870;13.660;2023-03-21T03:35:10;7.20;71.70
76470;DHT22;65305;52.870;13.660;2023-03-21T03:37:39;7.20;71.60
76470;DHT22;65305;52.870;13.660;2023-03-21T03:40:14;7.20;71.70
76470;DHT22;65305;52.870;13.660;2023-03-21T03:42:54;7.20;71.60
76470;DHT22;65305;52.870;13.660;2023-03-21T03:45:25;7.20;71.60
76470;DHT22;65305;52.870;13.660;2023-03-21T03:48:00;7.20;71.80
76470;DHT22;65305;52.870;13.660;2023-03-21T03:50:40;7.20;71.70
76470;DHT22;65305;52.870;13.660;2023-03-21T03:53:27;7.20;71.60
76470;DHT22;65305;52.870;13.660;2023-03-21T03:55:56;7.20;71.40
76470;DHT22;65305;52.870;13.660;2023-03-21T03:58:24;7.20;71.70
76470;DHT22;65305;52.870;13.660;2023-03-21T04:00:54;7.20;71.40
76470;DHT22;65305;52.870;13.660;2023-03-21T04:03:21;7.20;71.40
76470;DHT22;65305;52.870;13.660;2023-03-21T04:05:48;7.20;71.50
76470;DHT22;65305;52.870;13.660;2023-03-21T04:08:15;7.20;71.70
76470;DHT22;65305;52.870;13.660;2023-03-21T04:10:42;7.20;71.60
76470;DHT22;65305;52.870;13.660;2023-03-21T04:13:08;7.20;71.70
76470;DHT22;65305;52.870;13.660;2023-03-21T04:15:35;7.20;71.70
76470;DHT22;65305;52.870;13.660;2023-03-21T04:18:02;7.20;71.60
76470;DHT22;65305;52.870;13.660;2023-03-21T04:20:28;7.20;71.50
76470;DHT22;65305;52.870;13.660;2023-03-21T04:22:55;7.20;71.50
76470;DHT22;65305;52.870;13.660;2023-03-21T04:25:22;7.20;71.70
76470;DHT22;65305;52.870;13.660;2023-03-21T04:27:48;7.20;71.30
76470;DHT22;65305;52.870;13.660;2023-03-21T04:30:15;7.20;71.60
76470;DHT22;65305;52.870;13.660;2023-03-21T04:32:42;7.20;71.50
76470;DHT22;65305;52.870;13.660;2023-03-21T04:35:09;7.20;71.60
76470;DHT22;65305;52.870;13.660;2023-03-21T04:37:36;7.20;71.60
76470;DHT22;65305;52.870;13.660;2023-03-21T04:40:04;7.20;71.50
76470;DHT22;65305;52.870;13.660;2023-03-21T04:42:32;7.20;71.40
76470;DHT22;65305;52.870;13.660;2023-03-21T04:44:59;7.20;71.40
76470;DHT22;65305;52.870;13.660;2023-03-21T04:47:25;7.20;71.60
76470;DHT22;65305;52.870;13.660;2023-03-21T04:49:52;7.20;71.60
76470;DHT22;65305;52.870;13.660;2023-03-21T04:52:19;7.10;71.50
76470;DHT22;65305;52.870;13.660;2023-03-21T04:54:45;7.20;71.50
76470;DHT22;65305;52.870;13.660;2023-03-21T04:57:12;7.20;71.50
76470;DHT22;65305;52.870;13.660;2023-03-21T04:59:38;7.10;71.50
76470;DHT22;65305;52.870;13.660;2023-03-21T05:02:05;7.20;71.60
76470;DHT22;65305;52.870;13.660;2023-03-21T05:04:32;7.10;71.40
76470;DHT22;65305;52.870;13.660;2023-03-21T05:06:58;7.10;71.40
76470;DHT22;65305;52.870;13.660;2023-03-21T05:09:25;7.20;71.50
76470;DHT22;65305;52.870;13.660;2023-03-21T05:11:52;7.20;71.30
76470;DHT22;65305;52.870;13.660;2023-03-21T05:14:20;7.10;71.40
76470;DHT22;65305;52.870;13.660;2023-03-21T05:16:46;7.10;71.30
76470;DHT22;65305;52.870;13.660;2023-03-21T05:19:22;7.10;71.30
76470;DHT22;65305;52.870;13.660;2023-03-21T05:21:48;7.10;71.10
76470;DHT22;65305;52.870;13.660;2023-03-21T05:24:16;7.20;71.20
76470;DHT22;65305;52.870;13.660;2023-03-21T05:26:43;7.10;71.30
76470;DHT22;65305;52.870;13.660;2023-03-21T05:29:16;7.10;71.30
76470;DHT22;65305;52.870;13.660;2023-03-21T05:31:43;7.10;71.30
76470;DHT22;65305;52.870;13.660;2023-03-21T05:34:10;7.10;71.20
76470;DHT22;65305;52.870;13.660;2023-03-21T05:36:37;7.10;71.40
76470;DHT22;65305;52.870;13.660;2023-03-21T05:39:03;7.10;71.30
76470;DHT22;65305;52.870;13.660;2023-03-21T05:41:30;7.10;71.30
76470;DHT22;65305;52.870;13.660;2023-03-21T05:43:57;7.10;71.30
76470;DHT22;65305;52.870;13.660;2023-03-21T05:46:23;7.10;71.40
76470;DHT22;65305;52.870;13.660;2023-03-21T05:48:50;7.10;71.30
76470;DHT22;65305;52.870;13.660;2023-03-21T05:51:17;7.10;71.40
76470;DHT22;65305;52.870;13.660;2023-03-21T05:53:43;7.10;71.20
76470;DHT22;65305;52.870;13.660;2023-03-21T05:56:10;7.10;71.50
76470;DHT22;65305;52.870;13.660;2023-03-21T05:58:36;7.10;71.50
76470;DHT22;65305;52.870;13.660;2023-03-21T06:01:03;7.10;71.20
76470;DHT22;65305;52.870;13.660;2023-03-21T06:03:29;7.00;71.20
76470;DHT22;65305;52.870;13.660;2023-03-21T06:05:56;7.00;71.30
76470;DHT22;65305;52.870;13.660;2023-03-21T06:08:22;7.00;71.20
76470;DHT22;65305;52.870;13.660;2023-03-21T06:10:49;7.00;71.40
76470;DHT22;65305;52.870;13.660;2023-03-21T06:13:16;7.00;71.30
76470;DHT22;65305;52.870;13.660;2023-03-21T06:15:42;7.00;71.20
76470;DHT22;65305;52.870;13.660;2023-03-21T06:18:09;7.00;71.30
76470;DHT22;65305;52.870;13.660;2023-03-21T06:20:35;7.00;71.20
76470;DHT22;65305;52.870;13.660;2023-03-21T06:23:02;7.00;71.30
76470;DHT22;65305;52.870;13.660;2023-03-21T06:25:28;7.00;71.30
76470;DHT22;65305;52.870;13.660;2023-03-21T06:27:55;7.10;71.20
76470;DHT22;65305;52.870;13.660;2023-03-21T06:30:22;7.00;71.20
76470;DHT22;65305;52.870;13.660;2023-03-21T06:32:48;7.00;71.10
76470;DHT22;65305;52.870;13.660;2023-03-21T06:35:15;7.00;71.20
76470;DHT22;65305;52.870;13.660;2023-03-21T06:37:41;7.00;71.40
76470;DHT22;65305;52.870;13.660;2023-03-21T06:40:10;7.00;71.00
76470;DHT22;65305;52.870;13.660;2023-03-21T06:42:38;7.00;71.20
76470;DHT22;65305;52.870;13.660;2023-03-21T06:45:05;7.00;71.20
76470;DHT22;65305;52.870;13.660;2023-03-21T06:47:31;7.00;71.40
76470;DHT22;65305;52.870;13.660;2023-03-21T06:49:58;7.00;71.10
76470;DHT22;65305;52.870;13.660;2023-03-21T06:52:24;7.00;71.20
76470;DHT22;65305;52.870;13.660;2023-03-21T06:54:51;7.00;71.40
76470;DHT22;65305;52.870;13.660;2023-03-21T06:57:17;7.00;71.30
76470;DHT22;65305;52.870;13.660;2023-03-21T06:59:47;7.00;71.20
76470;DHT22;65305;52.870;13.660;2023-03-21T07:02:13;7.00;71.20
76470;DHT22;65305;52.870;13.660;2023-03-21T07:04:40;7.00;71.00
76470;DHT22;65305;52.870;13.660;2023-03-21T07:07:06;7.00;71.20
76470;DHT22;65305;52.870;13.660;2023-03-21T07:09:33;7.00;71.00
76470;DHT22;65305;52.870;13.660;2023-03-21T07:12:00;7.00;71.20
76470;DHT22;65305;52.870;13.660;2023-03-21T07:14:27;7.00;71.10
76470;DHT22;65305;52.870;13.660;2023-03-21T07:16:57;7.00;71.20
76470;DHT22;65305;52.870;13.660;2023-03-21T07:19:24;7.00;71.20
76470;DHT22;65305;52.870;13.660;2023-03-21T07:21:51;7.00;71.20
76470;DHT22;65305;52.870;13.660;2023-03-21T07:24:21;7.00;71.20
76470;DHT22;65305;52.870;13.660;2023-03-21T07:26:47;7.00;71.30
76470;DHT22;65305;52.870;13.660;2023-03-21T07:29:14;7.00;71.20
76470;DHT22;65305;52.870;13.660;2023-03-21T07:31:42;7.00;71.20
76470;DHT22;65305;52.870;13.660;2023-03-21T07:34:10;7.00;71.20
76470;DHT22;65305;52.870;13.660;2023-03-21T07:36:37;7.00;71.10
76470;DHT22;65305;52.870;13.660;2023-03-21T07:39:03;7.00;71.20
76470;DHT22;65305;52.870;13.660;2023-03-21T07:41:31;7.00;71.20
76470;DHT22;65305;52.870;13.660;2023-03-21T07:43:57;7.00;71.20
76470;DHT22;65305;52.870;13.660;2023-03-21T07:46:24;7.00;71.10
76470;DHT22;65305;52.870;13.660;2023-03-21T07:48:50;7.00;71.10
76470;DHT22;65305;52.870;13.660;2023-03-21T07:51:17;7.00;71.20
76470;DHT22;65305;52.870;13.660;2023-03-21T07:53:43;7.00;71.10
76470;DHT22;65305;52.870;13.660;2023-03-21T07:56:14;7.00;71.20
76470;DHT22;65305;52.870;13.660;2023-03-21T07:58:41;7.00;71.20
76470;DHT22;65305;52.870;13.660;2023-03-21T08:01:07;7.00;71.10
76470;DHT22;65305;52.870;13.660;2023-03-21T08:03:34;7.00;71.20
76470;DHT22;65305;52.870;13.660;2023-03-21T08:06:01;7.00;71.20
76470;DHT22;65305;52.870;13.660;2023-03-21T08:08:27;7.00;71.10
76470;DHT22;65305;52.870;13.660;2023-03-21T08:10:54;7.00;71.20
76470;DHT22;65305;52.870;13.660;2023-03-21T08:13:20;7.00;71.20
76470;DHT22;65305;52.870;13.660;2023-03-21T08:15:47;7.00;71.20
76470;DHT22;65305;52.870;13.660;2023-03-21T08:18:14;7.00;71.10
76470;DHT22;65305;52.870;13.660;2023-03-21T08:20:40;7.00;71.20
76470;DHT22;65305;52.870;13.660;2023-03-21T08:23:07;7.00;71.20
76470;DHT22;65305;52.870;13.660;2023-03-21T08:25:33;7.00;71.30
76470;DHT22;65305;52.870;13.660;2023-03-21T08:28:00;7.00;71.20
76470;DHT22;65305;52.870;13.660;2023-03-21T08:30:27;7.00;71.20
76470;DHT22;65305;52.870;13.660;2023-03-21T08:32:57;7.00;71.30
76470;DHT22;65305;52.870;13.660;2023-03-21T08:35:24;7.00;71.30
76470;DHT22;65305;52.870;13.660;2023-03-21T08:37:51;7.00;71.40
76470;DHT22;65305;52.870;13.660;2023-03-21T08:40:17;7.00;71.20
76470;DHT22;65305;52.870;13.660;2023-03-21T08:42:45;7.00;71.30
76470;DHT22;65305;52.870;13.660;2023-03-21T08:45:12;7.00;71.30
76470;DHT22;65305;52.870;13.660;2023-03-21T08:47:39;7.00;71.30
76470;DHT22;65305;52.870;13.660;2023-03-21T08:50:05;7.00;71.30
76470;DHT22;65305;52.870;13.660;2023-03-21T08:52:33;7.00;71.30
76470;DHT22;65305;52.870;13.660;2023-03-21T08:54:59;7.00;71.30
76470;DHT22;65305;52.870;13.660;2023-03-21T08:57:27;7.00;71.40
76470;DHT22;65305;52.870;13.660;2023-03-21T08:59:53;7.00;71.40
76470;DHT22;65305;52.870;13.660;2023-03-21T09:02:20;7.00;71.30
76470;DHT22;65305;52.870;13.660;2023-03-21T09:04:50;7.00;71.40
76470;DHT22;65305;52.870;13.660;2023-03-21T09:07:23;7.00;71.40
76470;DHT22;65305;52.870;13.660;2023-03-21T09:09:51;7.00;71.50
76470;DHT22;65305;52.870;13.660;2023-03-21T09:12:18;7.00;71.40
76470;DHT22;65305;52.870;13.660;2023-03-21T09:14:45;7.00;71.50
76470;DHT22;65305;52.870;13.660;2023-03-21T09:17:11;7.00;71.40
76470;DHT22;65305;52.870;13.660;2023-03-21T09:19:38;7.00;71.40
76470;DHT22;65305;52.870;13.660;2023-03-21T09:22:05;7.00;71.30
76470;DHT22;65305;52.870;13.660;2023-03-21T09:24:36;7.00;71.30
76470;DHT22;65305;52.870;13.660;2023-03-21T09:27:03;7.00;71.30
76470;DHT22;65305;52.870;13.660;2023-03-21T09:29:29;7.00;71.10
76470;DHT22;65305;52.870;13.660;2023-03-21T09:31:57;7.00;71.30
76470;DHT22;65305;52.870;13.660;2023-03-21T09:34:24;7.00;71.30
76470;DHT22;65305;52.870;13.660;2023-03-21T09:36:51;7.00;71.20
76470;DHT22;65305;52.870;13.660;2023-03-21T09:39:22;7.00;71.20
76470;DHT22;65305;52.870;13.660;2023-03-21T09:41:55;7.00;71.20
76470;DHT22;65305;52.870;13.660;2023-03-21T09:44:31;7.00;71.30
76470;DHT22;65305;52.870;13.660;2023-03-21T09:49:33;7.00;71.30
76470;DHT22;65305;52.870;13.660;2023-03-21T09:52:13;7.00;71.40
76470;DHT22;65305;52.870;13.660;2023-03-21T09:54:45;7.00;71.50
76470;DHT22;65305;52.870;13.660;2023-03-21T09:57:26;7.00;71.40
76470;DHT22;65305;52.870;13.660;2023-03-21T09:59:58;7.00;71.50
76470;DHT22;65305;52.870;13.660;2023-03-21T10:02:38;7.00;71.40
76470;DHT22;65305;52.870;13.660;2023-03-21T10:05:11;7.00;71.50
76470;DHT22;65305;52.870;13.660;2023-03-21T10:07:40;7.00;71.50
76470;DHT22;65305;52.870;13.660;2023-03-21T10:10:15;7.00;71.30
76470;DHT22;65305;52.870;13.660;2023-03-21T10:12:43;7.00;71.40
76470;DHT22;65305;52.870;13.660;2023-03-21T10:15:13;7.00;71.20
76470;DHT22;65305;52.870;13.660;2023-03-21T10:17:42;7.00;71.30
76470;DHT22;65305;52.870;13.660;2023-03-21T10:20:12;7.00;71.20
76470;DHT22;65305;52.870;13.660;2023-03-21T10:22:39;7.00;71.30
76470;DHT22;65305;52.870;13.660;2023-03-21T10:25:07;7.00;71.20
76470;DHT22;65305;52.870;13.660;2023-03-21T10:27:37;7.00;71.20
76470;DHT22;65305;52.870;13.660;2023-03-21T10:30:03;7.00;71.20
76470;DHT22;65305;52.870;13.660;2023-03-21T10:32:32;7.00;71.20
76470;DHT22;65305;52.870;13.660;2023-03-21T10:34:59;7.00;71.20
76470;DHT22;65305;52.870;13.660;2023-03-21T10:37:26;7.00;71.10
76470;DHT22;65305;52.870;13.660;2023-03-21T10:39:53;7.00;71.20
76470;DHT22;65305;52.870;13.660;2023-03-21T10:44:51;7.00;71.20
76470;DHT22;65305;52.870;13.660;2023-03-21T10:47:21;7.00;71.30
76470;DHT22;65305;52.870;13.660;2023-03-21T10:49:49;7.00;71.30
76470;DHT22;65305;52.870;13.660;2023-03-21T10:52:21;7.00;71.20
76470;DHT22;65305;52.870;13.660;2023-03-21T10:54:49;7.00;71.20
76470;DHT22;65305;52.870;13.660;2023-03-21T10:57:33;7.00;71.40
76470;DHT22;65305;52.870;13.660;2023-03-21T11:00:04;7.00;71.20
76470;DHT22;65305;52.870;13.660;2023-03-21T11:02:45;7.00;71.30
76470;DHT22;65305;52.870;13.660;2023-03-21T11:05:18;7.00;71.20
76470;DHT22;65305;52.870;13.660;2023-03-21T11:07:54;7.00;71.20
76470;DHT22;65305;52.870;13.660;2023-03-21T11:10:30;7.00;71.20
76470;DHT22;65305;52.870;13.660;2023-03-21T11:13:00;7.00;71.20
76470;DHT22;65305;52.870;13.660;2023-03-21T11:15:29;7.00;71.10
76470;DHT22;65305;52.870;13.660;2023-03-21T11:17:57;7.00;71.20
76470;DHT22;65305;52.870;13.660;2023-03-21T11:20:24;7.00;71.20
76470;DHT22;65305;52.870;13.660;2023-03-21T11:22:55;7.00;71.10
76470;DHT22;65305;52.870;13.660;2023-03-21T11:25:36;7.00;71.20
76470;DHT22;65305;52.870;13.660;2023-03-21T11:28:08;7.00;71.10
76470;DHT22;65305;52.870;13.660;2023-03-21T11:30:35;7.00;71.10
76470;DHT22;65305;52.870;13.660;2023-03-21T11:33:02;7.00;71.10
76470;DHT22;65305;52.870;13.660;2023-03-21T11:35:37;7.00;71.30
76470;DHT22;65305;52.870;13.660;2023-03-21T11:38:05;7.00;71.20
76470;DHT22;65305;52.870;13.660;2023-03-21T11:40:35;7.00;71.20
76470;DHT22;65305;52.870;13.660;2023-03-21T11:46:28;7.00;71.10
76470;DHT22;65305;52.870;13.660;2023-03-21T11:48:31;7.00;71.20
76470;DHT22;65305;52.870;13.660;2023-03-21T11:51:02;7.00;71.10
76470;DHT22;65305;52.870;13.660;2023-03-21T11:56:03;7.00;71.10
76470;DHT22;65305;52.870;13.660;2023-03-21T11:58:50;7.00;71.10
76470;DHT22;65305;52.870;13.660;2023-03-21T12:01:30;7.00;71.20
76470;DHT22;65305;52.870;13.660;2023-03-21T12:04:03;7.00;71.30
76470;DHT22;65305;52.870;13.660;2023-03-21T12:06:38;7.00;71.10
76470;DHT22;65305;52.870;13.660;2023-03-21T12:09:20;7.00;71.10
76470;DHT22;65305;52.870;13.660;2023-03-21T12:14:29;7.00;71.20
76470;DHT22;65305;52.870;13.660;2023-03-21T12:17:22;7.00;71.10
76470;DHT22;65305;52.870;13.660;2023-03-21T12:19:54;7.00;71.10
76470;DHT22;65305;52.870;13.660;2023-03-21T12:22:28;7.00;71.10
76470;DHT22;65305;52.870;13.660;2023-03-21T12:25:02;7.00;71.10
76470;DHT22;65305;52.870;13.660;2023-03-21T12:35:04;7.00;71.10
76470;DHT22;65305;52.870;13.660;2023-03-21T12:43:07;7.00;71.20
76470;DHT22;65305;52.870;13.660;2023-03-21T12:45:40;7.00;71.20
76470;DHT22;65305;52.870;13.660;2023-03-21T12:48:17;7.00;71.20
76470;DHT22;65305;52.870;13.660;2023-03-21T12:50:46;7.00;71.20
76470;DHT22;65305;52.870;13.660;2023-03-21T12:53:25;7.00;71.20
76470;DHT22;65305;52.870;13.660;2023-03-21T12:55:53;7.00;71.20
76470;DHT22;65305;52.870;13.660;2023-03-21T12:58:25;7.00;71.30
76470;DHT22;65305;52.870;13.660;2023-03-21T13:00:55;7.00;71.20
76470;DHT22;65305;52.870;13.660;2023-03-21T13:03:31;7.00;71.30
76470;DHT22;65305;52.870;13.660;2023-03-21T13:06:03;7.00;71.20
76470;DHT22;65305;52.870;13.660;2023-03-21T13:08:32;7.00;71.20
76470;DHT22;65305;52.870;13.660;2023-03-21T13:11:02;7.00;71.20
76470;DHT22;65305;52.870;13.660;2023-03-21T13:13:30;7.00;71.20
76470;DHT22;65305;52.870;13.660;2023-03-21T13:18:30;7.00;71.30
76470;DHT22;65305;52.870;13.660;2023-03-21T13:21:07;7.00;71.30
76470;DHT22;65305;52.870;13.660;2023-03-21T13:23:37;7.00;71.20
76470;DHT22;65305;52.870;13.660;2023-03-21T13:26:07;7.00;71.00
76470;DHT22;65305;52.870;13.660;2023-03-21T13:28:34;7.00;71.20
76470;DHT22;65305;52.870;13.660;2023-03-21T13:31:14;7.00;71.20
76470;DHT22;65305;52.870;13.660;2023-03-21T13:33:51;7.00;71.30
76470;DHT22;65305;52.870;13.660;2023-03-21T13:36:23;7.00;71.20
76470;DHT22;65305;52.870;13.660;2023-03-21T13:38:51;7.00;71.30
76470;DHT22;65305;52.870;13.660;2023-03-21T13:41:29;7.00;71.20
76470;DHT22;65305;52.870;13.660;2023-03-21T13:48:59;7.00;71.50
76470;DHT22;65305;52.870;13.660;2023-03-21T13:53:59;7.00;71.50
76470;DHT22;65305;52.870;13.660;2023-03-21T13:56:26;7.00;71.50
76470;DHT22;65305;52.870;13.660;2023-03-21T13:59:00;7.00;71.40
76470;DHT22;65305;52.870;13.660;2023-03-21T14:01:32;7.00;71.40
76470;DHT22;65305;52.870;13.660;2023-03-21T14:04:04;7.00;71.50
76470;DHT22;65305;52.870;13.660;2023-03-21T14:06:34;7.00;71.50
76470;DHT22;65305;52.870;13.660;2023-03-21T14:09:02;7.00;71.50
76470;DHT22;65305;52.870;13.660;2023-03-21T14:11:30;7.00;71.50
76470;DHT22;65305;52.870;13.660;2023-03-21T14:13:58;7.00;71.60
76470;DHT22;65305;52.870;13.660;2023-03-21T14:16:26;7.00;71.60
76470;DHT22;65305;52.870;13.660;2023-03-21T14:18:58;7.00;71.50
76470;DHT22;65305;52.870;13.660;2023-03-21T14:21:30;7.00;71.50
76470;DHT22;65305;52.870;13.660;2023-03-21T14:26:25;7.00;71.60
76470;DHT22;65305;52.870;13.660;2023-03-21T14:28:52;7.00;71.50
76470;DHT22;65305;52.870;13.660;2023-03-21T14:31:18;7.00;71.60
76470;DHT22;65305;52.870;13.660;2023-03-21T14:33:49;7.00;71.50
76470;DHT22;65305;52.870;13.660;2023-03-21T14:36:22;7.00;71.50
76470;DHT22;65305;52.870;13.660;2023-03-21T14:38:54;7.00;71.50
76470;DHT22;65305;52.870;13.660;2023-03-21T14:41:23;7.00;71.50
76470;DHT22;65305;52.870;13.660;2023-03-21T14:46:35;7.00;71.50
76470;DHT22;65305;52.870;13.660;2023-03-21T14:51:40;7.00;71.60
76470;DHT22;65305;52.870;13.660;2023-03-21T14:54:08;7.00;71.60
76470;DHT22;65305;52.870;13.660;2023-03-21T14:56:38;7.00;71.60
76470;DHT22;65305;52.870;13.660;2023-03-21T14:59:05;7.00;71.60
76470;DHT22;65305;52.870;13.660;2023-03-21T15:01:34;7.00;71.60
76470;DHT22;65305;52.870;13.660;2023-03-21T15:04:02;7.00;71.60
76470;DHT22;65305;52.870;13.660;2023-03-21T15:06:30;7.00;71.50
76470;DHT22;65305;52.870;13.660;2023-03-21T15:08:57;7.00;71.50
76470;DHT22;65305;52.870;13.660;2023-03-21T15:11:28;7.00;71.50
76470;DHT22;65305;52.870;13.660;2023-03-21T15:13:55;7.00;71.40
76470;DHT22;65305;52.870;13.660;2023-03-21T15:16:22;7.00;71.40
76470;DHT22;65305;52.870;13.660;2023-03-21T15:18:49;7.00;71.40
76470;DHT22;65305;52.870;13.660;2023-03-21T15:21:20;7.00;71.40
76470;DHT22;65305;52.870;13.660;2023-03-21T15:23:49;7.00;71.30
76470;DHT22;65305;52.870;13.660;2023-03-21T15:26:19;7.00;71.40
